createdAt,value
2022-08-17T00:02:07.623Z,19.95
2022-08-17T00:04:50.462Z,20.90
2022-08-17T00:07:17.148Z,20.55
2022-08-17T00:09:43.841Z,20.98
2022-08-17T00:12:43.611Z,21.27
2022-08-17T00:14:59.927Z,19.42
2022-08-17T00:17:26.598Z,19.20
2022-08-17T00:19:53.035Z,20.27
2022-08-17T00:22:34.726Z,23.60
2022-08-17T00:25:07.152Z,18.58
2022-08-17T00:27:33.714Z,19.63
2022-08-17T00:30:00.307Z,16.90
2022-08-17T00:33:12.433Z,19.48
2022-08-17T00:35:22.145Z,20.27
2022-08-17T00:37:49.018Z,17.88
2022-08-17T00:40:15.740Z,18.48
2022-08-17T00:42:45.839Z,18.73
2022-08-17T00:45:15.316Z,17.90
2022-08-17T00:47:43.581Z,15.40
2022-08-17T00:50:13.655Z,16.45
2022-08-17T00:52:47.737Z,18.33
2022-08-17T00:55:14.894Z,19.60
2022-08-17T00:57:52.205Z,18.30
2022-08-17T01:00:26.685Z,17.17
2022-08-17T01:02:56.568Z,14.70
2022-08-17T01:05:27.106Z,18.42
2022-08-17T01:07:55.705Z,16.70
2022-08-17T01:10:59.306Z,15.73
2022-08-17T01:13:16.349Z,15.10
2022-08-17T01:15:50.451Z,15.25
2022-08-17T01:18:17.241Z,17.45
2022-08-17T01:20:55.080Z,14.10
2022-08-17T01:23:24.080Z,15.32
2022-08-17T01:25:55.259Z,13.95
2022-08-17T01:28:52.750Z,15.23
2022-08-17T01:31:10.040Z,15.77
2022-08-17T01:33:37.468Z,16.23
2022-08-17T01:36:07.106Z,16.02
2022-08-17T01:38:36.120Z,15.73
2022-08-17T01:41:11.970Z,14.98
2022-08-17T01:43:45.226Z,18.25
2022-08-17T01:46:18.781Z,15.67
2022-08-17T01:48:47.387Z,15.45
2022-08-17T01:51:15.881Z,16.60
2022-08-17T01:53:47.224Z,15.13
2022-08-17T01:56:16.969Z,16.05
2022-08-17T01:58:43.971Z,18.50
2022-08-17T02:01:12.447Z,15.10
2022-08-17T02:03:38.815Z,18.17
2022-08-17T02:06:27.196Z,16.75
2022-08-17T02:09:03.073Z,19.42
2022-08-17T02:11:33.165Z,18.67
2022-08-17T02:14:03.420Z,19.15
2022-08-17T02:16:36.828Z,19.50
2022-08-17T02:19:07.553Z,17.90
2022-08-17T02:21:34.625Z,17.05
2022-08-17T02:24:01.253Z,18.87
2022-08-17T02:26:28.075Z,21.67
2022-08-17T02:28:54.744Z,22.40
2022-08-17T02:31:21.272Z,20.63
2022-08-17T02:33:56.558Z,20.08
2022-08-17T02:36:29.963Z,22.67
2022-08-17T02:38:56.970Z,19.60
2022-08-17T02:41:23.443Z,19.77
2022-08-17T02:43:49.828Z,20.60
2022-08-17T02:46:16.208Z,23.10
2022-08-17T02:48:42.580Z,22.70
2022-08-17T02:51:09.653Z,19.25
2022-08-17T02:53:36.332Z,17.55
2022-08-17T02:56:02.970Z,19.42
2022-08-17T02:58:34.806Z,18.92
2022-08-17T03:01:06.887Z,15.60
2022-08-17T03:03:34.078Z,15.10
2022-08-17T03:06:01.189Z,12.93
2022-08-17T03:08:27.773Z,15.00
2022-08-17T03:10:54.389Z,12.77
2022-08-17T03:13:20.939Z,14.53
2022-08-17T03:15:48.382Z,14.02
2022-08-17T03:18:24.144Z,13.35
2022-08-17T03:20:55.338Z,11.65
2022-08-17T03:23:24.331Z,13.57
2022-08-17T03:25:53.824Z,11.70
2022-08-17T03:28:22.100Z,13.20
2022-08-17T03:30:49.292Z,13.68
2022-08-17T03:33:16.770Z,11.18
2022-08-17T03:35:44.028Z,10.40
2022-08-17T03:38:12.477Z,10.87
2022-08-17T03:40:56.648Z,10.35
2022-08-17T03:43:31.455Z,10.07
2022-08-17T03:46:27.753Z,11.52
2022-08-17T03:49:18.091Z,13.27
2022-08-17T03:52:02.793Z,12.70
2022-08-17T03:54:47.809Z,11.25
2022-08-17T03:57:14.598Z,13.05
2022-08-17T03:59:41.389Z,12.75
2022-08-17T04:02:11.374Z,12.77
2022-08-17T04:04:39.218Z,9.63
2022-08-17T04:07:06.482Z,9.93
2022-08-17T04:09:33.796Z,11.00
2022-08-17T04:12:02.383Z,11.23
2022-08-17T04:14:36.116Z,11.60
2022-08-17T04:17:15.866Z,14.40
2022-08-17T04:19:43.641Z,12.43
2022-08-17T04:22:10.493Z,14.80
2022-08-17T04:24:57.003Z,14.05
2022-08-17T04:27:25.125Z,13.38
2022-08-17T04:29:55.620Z,13.80
2022-08-17T04:32:59.390Z,14.38
2022-08-17T04:35:09.519Z,17.65
2022-08-17T04:37:35.904Z,16.17
2022-08-17T04:40:21.877Z,17.95
2022-08-17T04:43:01.273Z,17.77
2022-08-17T04:45:31.946Z,19.50
2022-08-17T04:47:59.805Z,21.88
2022-08-17T04:50:26.657Z,21.27
2022-08-17T04:52:53.068Z,19.48
2022-08-17T04:55:19.623Z,23.30
2022-08-17T04:57:46.210Z,21.40
2022-08-17T05:00:13.447Z,18.83
2022-08-17T05:02:50.995Z,18.23
2022-08-17T05:05:20.763Z,17.58
2022-08-17T05:07:47.541Z,17.73
2022-08-17T05:10:13.928Z,15.80
2022-08-17T05:12:40.350Z,16.35
2022-08-17T05:15:12.070Z,20.75
2022-08-17T05:17:38.471Z,15.25
2022-08-17T05:20:05.369Z,13.00
2022-08-17T05:22:31.741Z,13.80
2022-08-17T05:24:58.124Z,13.25
2022-08-17T05:27:24.783Z,12.82
2022-08-17T05:29:56.494Z,15.93
2022-08-17T05:32:39.111Z,14.43
2022-08-17T05:35:07.342Z,11.75
2022-08-17T05:37:33.746Z,13.20
2022-08-17T05:40:00.282Z,7.90
2022-08-17T05:42:26.841Z,8.20
2022-08-17T05:44:57.313Z,6.60
2022-08-17T05:47:25.165Z,6.95
2022-08-17T05:49:51.726Z,5.03
2022-08-17T05:52:38.965Z,6.25
2022-08-17T05:55:22.739Z,5.28
2022-08-17T05:57:59.907Z,6.30
2022-08-17T06:00:32.995Z,6.53
2022-08-17T06:03:27.210Z,6.35
2022-08-17T06:06:14.920Z,6.00
2022-08-17T06:08:52.920Z,7.13
2022-08-17T06:11:25.200Z,6.00
2022-08-17T06:14:15.989Z,8.00
2022-08-17T06:16:46.224Z,7.28
2022-08-17T06:19:23.484Z,7.50
2022-08-17T06:21:53.930Z,7.78
2022-08-17T06:24:38.996Z,7.33
2022-08-17T06:27:30.331Z,7.38
2022-08-17T06:30:12.566Z,9.27
2022-08-17T06:32:42.695Z,9.25
2022-08-17T06:35:27.788Z,10.27
2022-08-17T06:38:04.152Z,11.73
2022-08-17T06:40:50.798Z,9.35
2022-08-17T06:43:26.183Z,9.32
2022-08-17T06:45:59.435Z,10.38
2022-08-17T06:48:33.644Z,10.65
2022-08-17T06:51:07.393Z,12.13
2022-08-17T06:53:42.629Z,9.32
2022-08-17T06:56:13.571Z,10.20
2022-08-17T06:58:43.260Z,16.45
2022-08-17T07:01:15.060Z,12.05
2022-08-17T07:03:45.554Z,16.03
2022-08-17T07:06:18.482Z,13.93
2022-08-17T07:08:54.742Z,10.18
2022-08-17T07:11:30.302Z,9.98
2022-08-17T07:14:05.664Z,12.23
2022-08-17T07:16:41.221Z,11.43
2022-08-17T07:19:10.955Z,11.50
2022-08-17T07:21:54.996Z,12.38
2022-08-17T07:24:41.433Z,12.40
2022-08-17T07:27:35.332Z,13.32
2022-08-17T07:30:10.658Z,11.37
2022-08-17T07:33:14.480Z,12.98
2022-08-17T07:35:44.175Z,13.50
2022-08-17T07:38:25.506Z,12.48
2022-08-17T07:41:02.981Z,10.00
2022-08-17T07:43:37.280Z,12.03
2022-08-17T07:46:37.938Z,10.48
2022-08-17T07:49:07.598Z,13.82
2022-08-17T07:51:45.644Z,12.15
2022-08-17T07:54:15.096Z,13.20
2022-08-17T07:56:53.475Z,11.57
2022-08-17T07:59:27.247Z,13.98
2022-08-17T08:02:21.725Z,13.10
2022-08-17T08:05:12.945Z,11.43
2022-08-17T08:07:49.008Z,12.63
2022-08-17T08:10:45.062Z,14.20
2022-08-17T08:13:24.006Z,12.90
2022-08-17T08:15:54.602Z,13.18
2022-08-17T08:18:53.636Z,13.60
2022-08-17T08:21:39.818Z,11.93
2022-08-17T08:24:20.358Z,11.93
2022-08-17T08:27:27.052Z,9.65
2022-08-17T08:30:08.708Z,10.82
2022-08-17T08:32:54.037Z,9.68
2022-08-17T08:35:41.654Z,11.18
2022-08-17T08:38:30.809Z,11.27
2022-08-17T08:41:16.321Z,11.15
2022-08-17T08:43:53.196Z,10.38
2022-08-17T08:46:25.883Z,11.60
2022-08-17T08:49:11.978Z,8.95
2022-08-17T08:51:55.748Z,8.30
2022-08-17T08:54:47.517Z,9.93
2022-08-17T08:57:26.914Z,6.95
2022-08-17T09:00:13.239Z,6.80
2022-08-17T09:03:14.085Z,6.70
2022-08-17T09:06:33.270Z,7.43
2022-08-17T09:09:09.262Z,5.57
2022-08-17T09:12:02.045Z,6.78
2022-08-17T09:14:44.953Z,7.05
2022-08-17T09:17:19.285Z,5.60
2022-08-17T09:20:01.461Z,5.43
2022-08-17T09:22:42.665Z,5.43
2022-08-17T09:25:13.789Z,5.93
2022-08-17T09:27:47.578Z,9.38
2022-08-17T09:30:15.312Z,6.22
2022-08-17T09:32:44.790Z,6.40
2022-08-17T09:35:37.170Z,7.00
2022-08-17T09:38:22.530Z,6.55
2022-08-17T09:41:13.324Z,7.05
2022-08-17T09:44:03.052Z,8.82
2022-08-17T09:46:33.122Z,7.33
2022-08-17T09:49:09.935Z,8.20
2022-08-17T09:51:47.290Z,7.43
2022-08-17T09:54:44.678Z,7.97
2022-08-17T09:57:42.011Z,9.10
2022-08-17T10:00:17.807Z,8.07
2022-08-17T10:03:05.614Z,8.52
2022-08-17T10:05:42.771Z,9.23
2022-08-17T10:08:43.117Z,9.75
2022-08-17T10:11:45.670Z,9.30
2022-08-17T10:14:36.442Z,13.03
2022-08-17T10:17:27.918Z,9.43
2022-08-17T10:20:03.750Z,8.85
2022-08-17T10:22:58.674Z,8.70
2022-08-17T10:25:59.773Z,9.30
2022-08-17T10:28:31.993Z,8.43
2022-08-17T10:31:34.155Z,7.75
2022-08-17T10:34:11.195Z,9.32
2022-08-17T10:37:08.761Z,7.60
2022-08-17T10:39:50.373Z,7.38
2022-08-17T10:42:32.789Z,7.50
2022-08-17T10:45:06.932Z,8.98
2022-08-17T10:48:05.789Z,8.10
2022-08-17T10:50:42.583Z,7.72
2022-08-17T10:53:09.629Z,8.90
2022-08-17T10:55:36.406Z,9.43
2022-08-17T10:58:24.376Z,11.20
2022-08-17T11:00:53.484Z,14.32
2022-08-17T11:03:24.652Z,13.13
2022-08-17T11:06:14.486Z,11.90
2022-08-17T11:09:08.083Z,13.50
2022-08-17T11:11:53.576Z,16.23
2022-08-17T11:14:41.402Z,13.75
2022-08-17T11:17:20.724Z,16.58
2022-08-17T11:20:12.929Z,16.83
2022-08-17T11:23:14.636Z,15.10
2022-08-17T11:25:46.939Z,14.77
2022-08-17T11:28:24.826Z,18.27
2022-08-17T11:31:01.612Z,16.05
2022-08-17T11:33:36.778Z,17.73
2022-08-17T11:36:26.065Z,16.17
2022-08-17T11:39:18.616Z,16.42
2022-08-17T11:41:57.140Z,18.02
2022-08-17T11:44:37.626Z,16.42
2022-08-17T11:47:32.819Z,16.33
2022-08-17T11:50:50.872Z,21.60
2022-08-17T11:53:37.227Z,18.83
2022-08-17T11:56:09.588Z,22.95
2022-08-17T11:58:42.030Z,20.92
2022-08-17T12:01:29.383Z,23.77
2022-08-17T12:04:16.255Z,24.20
2022-08-17T12:06:50.263Z,24.80
2022-08-17T12:09:26.604Z,24.70
2022-08-17T12:12:13.431Z,25.27
2022-08-17T12:17:41.471Z,25.23
2022-08-17T12:20:28.519Z,25.27
2022-08-17T12:23:09.656Z,24.27
2022-08-17T12:25:39.426Z,27.02
2022-08-17T12:28:22.238Z,24.05
2022-08-17T12:30:54.663Z,25.60
2022-08-17T12:33:27.936Z,25.33
2022-08-17T12:36:03.040Z,25.08
2022-08-17T12:38:35.128Z,23.15
2022-08-17T12:41:24.430Z,24.90
2022-08-17T12:44:02.753Z,24.63
2022-08-17T12:46:33.637Z,23.40
2022-08-17T12:49:22.584Z,26.50
2022-08-17T12:51:51.032Z,28.15
2022-08-17T12:54:26.135Z,28.90
2022-08-17T12:56:53.114Z,27.60
2022-08-17T12:59:29.935Z,26.15
2022-08-17T13:01:57.416Z,29.65
2022-08-17T13:04:24.132Z,30.05
2022-08-17T13:07:00.130Z,31.95
2022-08-17T13:09:35.449Z,26.50
2022-08-17T13:12:02.854Z,27.90
2022-08-17T13:14:31.614Z,31.73
2022-08-17T13:17:02.348Z,30.35
2022-08-17T13:19:40.385Z,25.65
2022-08-17T13:22:12.604Z,30.03
2022-08-17T13:24:53.108Z,28.45
2022-08-17T13:27:21.875Z,27.05
2022-08-17T13:29:53.469Z,25.65
2022-08-17T13:32:30.254Z,27.40
2022-08-17T13:35:14.172Z,27.67
2022-08-17T13:37:58.428Z,26.85
2022-08-17T13:40:29.915Z,25.85
2022-08-17T13:42:57.436Z,27.92
2022-08-17T13:45:39.586Z,26.50
2022-08-17T13:48:14.499Z,29.70
2022-08-17T13:50:56.547Z,28.83
2022-08-17T13:53:32.860Z,30.80
2022-08-17T13:56:36.923Z,30.42
2022-08-17T13:59:36.354Z,30.42
2022-08-17T14:02:16.844Z,25.97
2022-08-17T14:04:45.602Z,27.27
2022-08-17T14:07:12.464Z,32.80
2022-08-17T14:09:47.033Z,27.55
2022-08-17T14:12:16.273Z,30.98
2022-08-17T14:14:44.491Z,31.57
2022-08-17T14:17:12.235Z,24.52
2022-08-17T14:19:39.628Z,27.98
2022-08-17T14:22:09.696Z,27.10
2022-08-17T14:24:44.586Z,27.63
2022-08-17T14:27:12.025Z,25.93
2022-08-17T14:29:40.972Z,25.25
2022-08-17T14:32:19.281Z,26.08
2022-08-17T14:34:46.666Z,26.02
2022-08-17T14:37:13.458Z,26.85
2022-08-17T14:39:41.196Z,27.33
2022-08-17T14:42:09.297Z,22.73
2022-08-17T14:44:36.155Z,24.42
2022-08-17T14:47:04.200Z,26.42
2022-08-17T14:49:35.977Z,24.75
2022-08-17T14:52:02.843Z,22.87
2022-08-17T14:54:34.326Z,24.02
2022-08-17T14:57:22.730Z,24.00
2022-08-17T14:59:53.203Z,22.35
2022-08-17T15:02:30.128Z,23.42
2022-08-17T15:05:04.035Z,23.00
2022-08-17T15:07:31.409Z,25.13
2022-08-17T15:10:02.055Z,22.73
2022-08-17T15:12:34.636Z,23.20
2022-08-17T15:15:05.066Z,22.90
2022-08-17T15:17:44.485Z,21.10
2022-08-17T15:20:24.627Z,22.25
2022-08-17T15:22:55.187Z,22.85
2022-08-17T15:25:22.754Z,23.10
2022-08-17T15:27:49.395Z,22.48
2022-08-17T15:30:16.349Z,20.13
2022-08-17T15:32:51.282Z,20.75
2022-08-17T15:35:27.244Z,21.17
2022-08-17T15:38:10.545Z,20.67
2022-08-17T15:40:44.439Z,23.38
2022-08-17T15:43:14.775Z,20.17
2022-08-17T15:45:41.259Z,23.00
2022-08-17T15:48:07.804Z,21.35
2022-08-17T15:50:34.733Z,21.20
2022-08-17T15:53:01.912Z,20.67
2022-08-17T15:55:30.332Z,20.23
2022-08-17T15:57:56.789Z,16.13
2022-08-17T16:00:28.277Z,19.80
2022-08-17T16:03:13.615Z,17.90
2022-08-17T16:05:42.701Z,17.50
2022-08-17T16:08:10.880Z,17.47
2022-08-17T16:10:37.355Z,18.27
2022-08-17T16:13:04.439Z,16.00
2022-08-17T16:15:31.912Z,15.13
2022-08-17T16:17:59.208Z,14.88
2022-08-17T16:20:25.997Z,16.20
2022-08-17T16:22:54.221Z,15.68
2022-08-17T16:25:51.929Z,16.45
2022-08-17T16:28:15.636Z,18.27
2022-08-17T16:30:42.803Z,18.67
2022-08-17T16:33:14.983Z,17.60
2022-08-17T16:35:42.097Z,19.25
2022-08-17T16:38:09.436Z,18.58
2022-08-17T16:40:36.399Z,21.73
2022-08-17T16:43:03.922Z,20.23
2022-08-17T16:45:36.699Z,21.20
2022-08-17T16:48:03.725Z,19.65
2022-08-17T16:50:30.236Z,23.20
2022-08-17T16:53:06.558Z,21.98
2022-08-17T16:55:35.577Z,21.85
2022-08-17T16:58:04.396Z,22.60
2022-08-17T17:00:31.385Z,22.55
2022-08-17T17:03:19.203Z,22.90
2022-08-17T17:06:01.565Z,23.95
2022-08-17T17:08:34.658Z,26.83
2022-08-17T17:11:10.226Z,25.77
2022-08-17T17:13:54.206Z,26.35
2022-08-17T17:16:29.405Z,24.17
2022-08-17T17:19:09.074Z,23.40
2022-08-17T17:21:49.697Z,25.92
2022-08-17T17:24:51.676Z,23.70
2022-08-17T17:27:30.309Z,24.10
2022-08-17T17:30:11.026Z,24.15
2022-08-17T17:32:55.661Z,23.65
2022-08-17T17:35:45.154Z,24.95
2022-08-17T17:38:16.984Z,23.93
2022-08-17T17:40:51.129Z,27.58
2022-08-17T17:43:38.501Z,24.52
2022-08-17T17:46:27.504Z,29.33
2022-08-17T17:48:56.916Z,23.95
2022-08-17T17:51:58.155Z,26.07
2022-08-17T17:54:37.283Z,25.38
2022-08-17T17:57:24.482Z,25.75
2022-08-17T18:00:15.450Z,22.77
2022-08-17T18:03:03.512Z,24.75
2022-08-17T18:05:45.152Z,23.30
2022-08-17T18:08:19.355Z,24.45
2022-08-17T18:10:56.634Z,26.00
2022-08-17T18:13:37.000Z,27.10
2022-08-17T18:16:06.672Z,23.55
2022-08-17T18:18:44.317Z,24.73
2022-08-17T18:21:21.074Z,24.80
2022-08-17T18:23:59.001Z,22.83
2022-08-17T18:26:40.140Z,23.15
2022-08-17T18:29:25.555Z,23.52
2022-08-17T18:32:10.719Z,22.50
2022-08-17T18:34:47.341Z,22.45
2022-08-17T18:37:31.067Z,22.83
2022-08-17T18:39:57.528Z,21.70
2022-08-17T18:42:28.921Z,22.33
2022-08-17T18:44:55.991Z,25.40
2022-08-17T18:47:25.679Z,22.92
2022-08-17T18:49:58.609Z,23.38
2022-08-17T18:52:29.429Z,24.38
2022-08-17T18:55:19.864Z,22.17
2022-08-17T18:57:52.728Z,21.40
2022-08-17T19:00:39.349Z,25.00
2022-08-17T19:03:18.047Z,21.80
2022-08-17T19:05:48.611Z,23.52
2022-08-17T19:08:18.308Z,23.17
2022-08-17T19:10:47.420Z,24.97
2022-08-17T19:13:24.906Z,21.75
2022-08-17T19:16:11.682Z,21.92
2022-08-17T19:18:52.688Z,21.80
2022-08-17T19:21:23.855Z,21.65
2022-08-17T19:24:09.601Z,22.70
2022-08-17T19:26:54.160Z,20.15
2022-08-17T19:29:28.459Z,21.90
2022-08-17T19:31:56.863Z,22.60
2022-08-17T19:34:30.203Z,20.85
2022-08-17T19:37:06.797Z,21.93
2022-08-17T19:39:51.586Z,21.23
2022-08-17T19:42:47.169Z,21.23
2022-08-17T19:45:47.868Z,22.38
2022-08-17T19:48:41.737Z,21.17
2022-08-17T19:51:13.964Z,20.17
2022-08-17T19:54:06.630Z,21.25
2022-08-17T19:56:45.338Z,22.13
2022-08-17T19:59:16.122Z,28.13
2022-08-17T20:01:47.004Z,24.45
2022-08-17T20:04:35.691Z,22.10
2022-08-17T20:07:19.073Z,21.70
2022-08-17T20:09:56.606Z,30.15
2022-08-17T20:12:30.480Z,25.08
2022-08-17T20:15:06.584Z,28.50
2022-08-17T20:17:45.750Z,29.33
2022-08-17T20:20:21.464Z,31.15
2022-08-17T20:22:59.507Z,31.60
2022-08-17T20:25:36.156Z,25.55
2022-08-17T20:28:22.258Z,26.58
2022-08-17T20:30:49.155Z,24.30
2022-08-17T20:33:36.667Z,26.63
2022-08-17T20:36:16.273Z,29.80
2022-08-17T20:38:44.642Z,26.17
2022-08-17T20:41:14.782Z,26.95
2022-08-17T20:43:46.770Z,25.73
2022-08-17T20:46:41.496Z,26.27
2022-08-17T20:49:10.972Z,25.15
2022-08-17T20:52:01.255Z,25.77
2022-08-17T20:54:45.390Z,22.60
2022-08-17T20:57:31.218Z,23.43
2022-08-17T21:00:30.789Z,23.77
2022-08-17T21:03:26.721Z,22.27
2022-08-17T21:06:00.026Z,24.85
2022-08-17T21:08:53.158Z,23.48
2022-08-17T21:12:02.890Z,25.50
2022-08-17T21:14:36.677Z,24.83
2022-08-17T21:17:29.737Z,19.35
2022-08-17T21:20:11.462Z,20.67
2022-08-17T21:23:00.042Z,21.70
2022-08-17T21:25:39.873Z,23.73
2022-08-17T21:28:14.923Z,19.08
2022-08-17T21:31:29.287Z,19.25
2022-08-17T21:34:15.144Z,16.95
2022-08-17T21:36:43.617Z,17.75
2022-08-17T21:39:14.898Z,16.17
2022-08-17T21:41:55.828Z,16.67
2022-08-17T21:44:34.990Z,15.30
2022-08-17T21:47:18.632Z,14.20
2022-08-17T21:49:45.236Z,17.52
2022-08-17T21:52:17.873Z,15.47
2022-08-17T21:54:54.610Z,15.25
2022-08-17T21:57:27.227Z,15.43
2022-08-17T22:00:15.636Z,14.45
2022-08-17T22:02:42.961Z,14.77
2022-08-17T22:05:14.120Z,12.27
2022-08-17T22:07:47.060Z,14.50
2022-08-17T22:10:43.743Z,13.35
2022-08-17T22:13:20.378Z,12.75
2022-08-17T22:15:50.674Z,12.15
2022-08-17T22:18:26.879Z,10.67
2022-08-17T22:20:56.484Z,12.48
2022-08-17T22:23:46.850Z,11.88
2022-08-17T22:26:15.527Z,13.25
2022-08-17T22:28:56.475Z,11.52
2022-08-17T22:31:26.243Z,13.43
2022-08-17T22:34:01.921Z,11.00
2022-08-17T22:36:41.170Z,12.13
2022-08-17T22:39:10.709Z,11.38
2022-08-17T22:41:59.350Z,10.68
2022-08-17T22:44:33.710Z,10.33
2022-08-17T22:47:02.375Z,12.98
2022-08-17T22:49:34.708Z,11.82
2022-08-17T22:52:04.559Z,13.77
2022-08-17T22:54:52.396Z,10.85
2022-08-17T22:57:40.668Z,13.37
2022-08-17T23:00:54.181Z,11.48
2022-08-17T23:03:26.312Z,13.43
2022-08-17T23:06:08.880Z,11.20
2022-08-17T23:08:48.803Z,11.38
2022-08-17T23:11:15.409Z,11.63
2022-08-17T23:13:41.965Z,14.18
2022-08-17T23:16:08.559Z,13.55
2022-08-17T23:18:35.691Z,12.07
2022-08-17T23:21:02.149Z,10.30
2022-08-17T23:23:29.742Z,15.53
2022-08-17T23:25:56.164Z,13.27
2022-08-17T23:28:22.699Z,11.27
2022-08-17T23:30:49.278Z,13.57
2022-08-17T23:33:26.768Z,11.65
2022-08-17T23:35:54.064Z,14.50
2022-08-17T23:38:20.616Z,12.38
2022-08-17T23:40:47.065Z,12.02
2022-08-17T23:43:23.665Z,12.52
2022-08-17T23:45:57.508Z,11.77
2022-08-17T23:48:28.417Z,12.20
2022-08-17T23:51:17.264Z,13.23
2022-08-17T23:53:48.102Z,14.07
2022-08-17T23:56:15.334Z,15.85
2022-08-17T23:58:44.704Z,15.25
